sensor_id;sensor_type;location;lat;lon;timestamp;temperature;humidity
5576;DHT22;2810;50.134;8.626;2022-08-06T00:01:50;18.40;99.90
5576;DHT22;2810;50.134;8.626;2022-08-06T00:04:16;18.20;99.90
5576;DHT22;2810;50.134;8.626;2022-08-06T00:06:42;18.20;99.90
5576;DHT22;2810;50.134;8.626;2022-08-06T00:09:07;18.20;99.90
5576;DHT22;2810;50.134;8.626;2022-08-06T00:11:33;18.20;99.90
5576;DHT22;2810;50.134;8.626;2022-08-06T00:13:58;18.20;99.90
5576;DHT22;2810;50.134;8.626;2022-08-06T00:16:24;18.30;99.90
5576;DHT22;2810;50.134;8.626;2022-08-06T00:18:50;18.30;99.90
5576;DHT22;2810;50.134;8.626;2022-08-06T00:21:15;18.30;99.90
5576;DHT22;2810;50.134;8.626;2022-08-06T00:23:41;18.20;99.90
5576;DHT22;2810;50.134;8.626;2022-08-06T00:26:06;18.10;99.90
5576;DHT22;2810;50.134;8.626;2022-08-06T00:28:32;18.00;99.90
5576;DHT22;2810;50.134;8.626;2022-08-06T00:31:01;18.00;99.90
5576;DHT22;2810;50.134;8.626;2022-08-06T00:33:27;18.00;99.90
5576;DHT22;2810;50.134;8.626;2022-08-06T00:35:52;17.90;99.90
5576;DHT22;2810;50.134;8.626;2022-08-06T00:38:17;17.70;99.90
5576;DHT22;2810;50.134;8.626;2022-08-06T00:40:43;17.70;99.90
5576;DHT22;2810;50.134;8.626;2022-08-06T00:43:08;17.60;99.90
5576;DHT22;2810;50.134;8.626;2022-08-06T00:45:34;17.60;99.90
5576;DHT22;2810;50.134;8.626;2022-08-06T00:48:00;17.80;99.90
5576;DHT22;2810;50.134;8.626;2022-08-06T00:50:25;17.60;99.90
5576;DHT22;2810;50.134;8.626;2022-08-06T00:52:51;17.50;99.90
5576;DHT22;2810;50.134;8.626;2022-08-06T00:55:16;17.40;99.90
5576;DHT22;2810;50.134;8.626;2022-08-06T00:57:42;17.30;99.90
5576;DHT22;2810;50.134;8.626;2022-08-06T01:00:08;17.20;99.90
5576;DHT22;2810;50.134;8.626;2022-08-06T01:02:33;17.10;99.90
5576;DHT22;2810;50.134;8.626;2022-08-06T01:04:59;17.10;99.90
5576;DHT22;2810;50.134;8.626;2022-08-06T01:07:24;17.00;99.90
5576;DHT22;2810;50.134;8.626;2022-08-06T01:09:50;17.00;99.90
5576;DHT22;2810;50.134;8.626;2022-08-06T01:12:16;16.90;99.90
5576;DHT22;2810;50.134;8.626;2022-08-06T01:14:41;16.80;99.90
5576;DHT22;2810;50.134;8.626;2022-08-06T01:17:08;16.70;99.90
5576;DHT22;2810;50.134;8.626;2022-08-06T01:19:50;16.70;99.90
5576;DHT22;2810;50.134;8.626;2022-08-06T01:23:21;16.70;99.90
5576;DHT22;2810;50.134;8.626;2022-08-06T01:25:21;16.70;99.90
5576;DHT22;2810;50.134;8.626;2022-08-06T01:30:19;16.50;99.90
5576;DHT22;2810;50.134;8.626;2022-08-06T01:33:02;16.50;99.90
5576;DHT22;2810;50.134;8.626;2022-08-06T01:35:30;16.50;99.90
5576;DHT22;2810;50.134;8.626;2022-08-06T01:40:25;16.40;99.90
5576;DHT22;2810;50.134;8.626;2022-08-06T01:42:55;16.40;99.90
5576;DHT22;2810;50.134;8.626;2022-08-06T01:45:22;16.40;99.90
5576;DHT22;2810;50.134;8.626;2022-08-06T01:47:50;16.30;99.90
5576;DHT22;2810;50.134;8.626;2022-08-06T01:50:17;16.30;99.90
5576;DHT22;2810;50.134;8.626;2022-08-06T01:52:43;16.20;99.90
5576;DHT22;2810;50.134;8.626;2022-08-06T01:55:10;16.10;99.90
5576;DHT22;2810;50.134;8.626;2022-08-06T01:57:36;16.10;99.90
5576;DHT22;2810;50.134;8.626;2022-08-06T02:00:03;16.10;99.90
5576;DHT22;2810;50.134;8.626;2022-08-06T02:02:29;16.10;99.90
5576;DHT22;2810;50.134;8.626;2022-08-06T02:04:59;16.10;99.90
5576;DHT22;2810;50.134;8.626;2022-08-06T02:07:26;16.10;99.90
5576;DHT22;2810;50.134;8.626;2022-08-06T02:09:53;16.20;99.90
5576;DHT22;2810;50.134;8.626;2022-08-06T02:12:21;16.20;99.90
5576;DHT22;2810;50.134;8.626;2022-08-06T02:14:50;16.10;99.90
5576;DHT22;2810;50.134;8.626;2022-08-06T02:17:18;16.10;99.90
5576;DHT22;2810;50.134;8.626;2022-08-06T02:19:47;16.00;99.90
5576;DHT22;2810;50.134;8.626;2022-08-06T02:22:12;15.90;99.90
5576;DHT22;2810;50.134;8.626;2022-08-06T02:24:38;15.90;99.90
5576;DHT22;2810;50.134;8.626;2022-08-06T02:27:04;16.00;99.90
5576;DHT22;2810;50.134;8.626;2022-08-06T02:29:30;15.90;99.90
5576;DHT22;2810;50.134;8.626;2022-08-06T02:31:56;15.90;99.90
5576;DHT22;2810;50.134;8.626;2022-08-06T02:34:22;15.90;99.90
5576;DHT22;2810;50.134;8.626;2022-08-06T02:37:10;15.90;99.90
5576;DHT22;2810;50.134;8.626;2022-08-06T02:39:50;15.90;99.90
5576;DHT22;2810;50.134;8.626;2022-08-06T02:42:33;15.90;99.90
5576;DHT22;2810;50.134;8.626;2022-08-06T02:45:08;15.90;99.90
5576;DHT22;2810;50.134;8.626;2022-08-06T02:47:39;15.90;99.90
5576;DHT22;2810;50.134;8.626;2022-08-06T02:50:06;16.00;99.90
5576;DHT22;2810;50.134;8.626;2022-08-06T02:53:19;16.10;99.90
5576;DHT22;2810;50.134;8.626;2022-08-06T02:55:19;16.10;99.90
5576;DHT22;2810;50.134;8.626;2022-08-06T02:57:50;16.00;99.90
5576;DHT22;2810;50.134;8.626;2022-08-06T03:00:16;16.10;99.90
5576;DHT22;2810;50.134;8.626;2022-08-06T03:02:42;16.10;99.90
5576;DHT22;2810;50.134;8.626;2022-08-06T03:05:10;16.10;99.90
5576;DHT22;2810;50.134;8.626;2022-08-06T03:07:38;16.10;99.90
5576;DHT22;2810;50.134;8.626;2022-08-06T03:10:05;16.20;99.90
5576;DHT22;2810;50.134;8.626;2022-08-06T03:12:31;16.20;99.90
5576;DHT22;2810;50.134;8.626;2022-08-06T03:14:58;16.10;99.90
5576;DHT22;2810;50.134;8.626;2022-08-06T03:17:27;16.20;99.90
5576;DHT22;2810;50.134;8.626;2022-08-06T03:19:53;16.10;99.90
5576;DHT22;2810;50.134;8.626;2022-08-06T03:22:19;16.10;99.90
5576;DHT22;2810;50.134;8.626;2022-08-06T03:24:45;16.10;99.90
5576;DHT22;2810;50.134;8.626;2022-08-06T03:27:11;16.00;99.90
5576;DHT22;2810;50.134;8.626;2022-08-06T03:29:38;15.90;99.90
5576;DHT22;2810;50.134;8.626;2022-08-06T03:32:06;15.90;99.90
5576;DHT22;2810;50.134;8.626;2022-08-06T03:34:31;15.70;99.90
5576;DHT22;2810;50.134;8.626;2022-08-06T03:36:58;15.60;99.90
5576;DHT22;2810;50.134;8.626;2022-08-06T03:39:25;15.60;99.90
5576;DHT22;2810;50.134;8.626;2022-08-06T03:41:51;15.70;99.90
5576;DHT22;2810;50.134;8.626;2022-08-06T03:44:17;15.60;99.90
5576;DHT22;2810;50.134;8.626;2022-08-06T03:47:00;15.70;99.90
5576;DHT22;2810;50.134;8.626;2022-08-06T03:49:27;15.80;99.90
5576;DHT22;2810;50.134;8.626;2022-08-06T03:51:54;15.80;99.90
5576;DHT22;2810;50.134;8.626;2022-08-06T03:54:25;15.70;99.90
5576;DHT22;2810;50.134;8.626;2022-08-06T03:56:51;15.70;99.90
5576;DHT22;2810;50.134;8.626;2022-08-06T03:59:17;15.70;99.90
5576;DHT22;2810;50.134;8.626;2022-08-06T04:01:44;15.80;99.90
5576;DHT22;2810;50.134;8.626;2022-08-06T04:04:10;15.80;99.90
5576;DHT22;2810;50.134;8.626;2022-08-06T04:06:36;15.70;99.90
5576;DHT22;2810;50.134;8.626;2022-08-06T04:09:01;15.70;99.90
5576;DHT22;2810;50.134;8.626;2022-08-06T04:11:27;15.80;99.90
5576;DHT22;2810;50.134;8.626;2022-08-06T04:13:53;15.60;99.90
5576;DHT22;2810;50.134;8.626;2022-08-06T04:16:18;15.60;99.90
5576;DHT22;2810;50.134;8.626;2022-08-06T04:18:44;15.60;99.90
5576;DHT22;2810;50.134;8.626;2022-08-06T04:21:13;15.50;99.90
5576;DHT22;2810;50.134;8.626;2022-08-06T04:23:39;15.50;99.90
5576;DHT22;2810;50.134;8.626;2022-08-06T04:26:06;15.40;99.90
5576;DHT22;2810;50.134;8.626;2022-08-06T04:28:33;15.30;99.90
5576;DHT22;2810;50.134;8.626;2022-08-06T04:31:00;15.20;99.90
5576;DHT22;2810;50.134;8.626;2022-08-06T04:33:26;15.10;99.90
5576;DHT22;2810;50.134;8.626;2022-08-06T04:35:52;15.00;99.90
5576;DHT22;2810;50.134;8.626;2022-08-06T04:38:18;14.90;99.90
5576;DHT22;2810;50.134;8.626;2022-08-06T04:40:45;14.90;99.90
5576;DHT22;2810;50.134;8.626;2022-08-06T04:43:11;14.90;99.90
5576;DHT22;2810;50.134;8.626;2022-08-06T04:45:38;15.10;99.90
5576;DHT22;2810;50.134;8.626;2022-08-06T04:48:04;15.10;99.90
5576;DHT22;2810;50.134;8.626;2022-08-06T04:50:31;15.10;99.90
5576;DHT22;2810;50.134;8.626;2022-08-06T04:53:10;15.10;99.90
5576;DHT22;2810;50.134;8.626;2022-08-06T04:55:36;15.00;99.90
5576;DHT22;2810;50.134;8.626;2022-08-06T04:58:03;15.10;99.90
5576;DHT22;2810;50.134;8.626;2022-08-06T05:00:29;15.10;99.90
5576;DHT22;2810;50.134;8.626;2022-08-06T05:02:54;15.00;99.90
5576;DHT22;2810;50.134;8.626;2022-08-06T05:05:20;14.90;99.90
5576;DHT22;2810;50.134;8.626;2022-08-06T05:07:46;14.90;99.90
5576;DHT22;2810;50.134;8.626;2022-08-06T05:10:12;15.00;99.90
5576;DHT22;2810;50.134;8.626;2022-08-06T05:12:42;15.00;99.90
5576;DHT22;2810;50.134;8.626;2022-08-06T05:17:41;15.20;99.90
5576;DHT22;2810;50.134;8.626;2022-08-06T05:20:17;15.30;99.90
5576;DHT22;2810;50.134;8.626;2022-08-06T05:22:44;15.50;99.90
5576;DHT22;2810;50.134;8.626;2022-08-06T05:25:09;15.60;99.90
5576;DHT22;2810;50.134;8.626;2022-08-06T05:27:35;15.60;99.90
5576;DHT22;2810;50.134;8.626;2022-08-06T05:30:01;15.80;99.90
5576;DHT22;2810;50.134;8.626;2022-08-06T05:32:27;15.90;99.90
5576;DHT22;2810;50.134;8.626;2022-08-06T05:34:52;16.00;99.90
5576;DHT22;2810;50.134;8.626;2022-08-06T05:37:18;16.20;99.90
5576;DHT22;2810;50.134;8.626;2022-08-06T05:39:43;16.20;99.90
5576;DHT22;2810;50.134;8.626;2022-08-06T05:42:09;16.20;99.90
5576;DHT22;2810;50.134;8.626;2022-08-06T05:44:34;16.20;99.90
5576;DHT22;2810;50.134;8.626;2022-08-06T05:47:22;16.30;99.90
5576;DHT22;2810;50.134;8.626;2022-08-06T05:49:47;16.30;99.90
5576;DHT22;2810;50.134;8.626;2022-08-06T05:52:22;16.40;99.90
5576;DHT22;2810;50.134;8.626;2022-08-06T05:54:52;16.50;99.90
5576;DHT22;2810;50.134;8.626;2022-08-06T06:00:11;16.60;99.90
5576;DHT22;2810;50.134;8.626;2022-08-06T06:02:39;16.70;99.90
5576;DHT22;2810;50.134;8.626;2022-08-06T06:05:06;16.90;99.90
5576;DHT22;2810;50.134;8.626;2022-08-06T06:07:32;17.00;99.90
5576;DHT22;2810;50.134;8.626;2022-08-06T06:09:57;17.10;99.90
5576;DHT22;2810;50.134;8.626;2022-08-06T06:12:23;17.10;99.90
5576;DHT22;2810;50.134;8.626;2022-08-06T06:14:49;17.40;99.90
5576;DHT22;2810;50.134;8.626;2022-08-06T06:20:45;17.50;99.90
5576;DHT22;2810;50.134;8.626;2022-08-06T06:22:53;17.60;99.90
5576;DHT22;2810;50.134;8.626;2022-08-06T06:25:24;17.70;99.90
5576;DHT22;2810;50.134;8.626;2022-08-06T06:28:02;17.70;99.90
5576;DHT22;2810;50.134;8.626;2022-08-06T06:30:33;17.70;99.90
5576;DHT22;2810;50.134;8.626;2022-08-06T06:33:06;17.90;99.90
5576;DHT22;2810;50.134;8.626;2022-08-06T06:36:21;18.30;99.90
5576;DHT22;2810;50.134;8.626;2022-08-06T06:43:44;21.80;99.90
5576;DHT22;2810;50.134;8.626;2022-08-06T06:46:20;22.70;99.90
5576;DHT22;2810;50.134;8.626;2022-08-06T06:48:48;23.50;99.60
5576;DHT22;2810;50.134;8.626;2022-08-06T06:51:29;24.00;97.60
5576;DHT22;2810;50.134;8.626;2022-08-06T06:53:55;24.20;96.20
5576;DHT22;2810;50.134;8.626;2022-08-06T06:56:21;24.20;95.40
5576;DHT22;2810;50.134;8.626;2022-08-06T06:58:50;24.40;94.70
5576;DHT22;2810;50.134;8.626;2022-08-06T07:01:17;24.80;94.30
5576;DHT22;2810;50.134;8.626;2022-08-06T07:03:43;25.00;93.50
5576;DHT22;2810;50.134;8.626;2022-08-06T07:06:10;25.40;92.10
5576;DHT22;2810;50.134;8.626;2022-08-06T07:08:40;25.80;91.40
5576;DHT22;2810;50.134;8.626;2022-08-06T07:11:10;25.80;89.20
5576;DHT22;2810;50.134;8.626;2022-08-06T07:13:36;26.10;88.20
5576;DHT22;2810;50.134;8.626;2022-08-06T07:16:02;26.30;86.40
5576;DHT22;2810;50.134;8.626;2022-08-06T07:18:29;26.40;83.90
5576;DHT22;2810;50.134;8.626;2022-08-06T07:20:54;26.50;83.40
5576;DHT22;2810;50.134;8.626;2022-08-06T07:23:20;26.60;83.80
5576;DHT22;2810;50.134;8.626;2022-08-06T07:25:48;26.90;82.50
5576;DHT22;2810;50.134;8.626;2022-08-06T07:28:14;27.10;79.40
5576;DHT22;2810;50.134;8.626;2022-08-06T07:30:40;26.90;77.70
5576;DHT22;2810;50.134;8.626;2022-08-06T07:33:06;26.60;79.10
5576;DHT22;2810;50.134;8.626;2022-08-06T07:35:33;26.70;78.90
5576;DHT22;2810;50.134;8.626;2022-08-06T07:38:00;26.70;78.40
5576;DHT22;2810;50.134;8.626;2022-08-06T07:40:28;26.50;78.90
5576;DHT22;2810;50.134;8.626;2022-08-06T07:42:56;26.60;79.60
5576;DHT22;2810;50.134;8.626;2022-08-06T07:45:24;27.10;78.40
5576;DHT22;2810;50.134;8.626;2022-08-06T07:47:50;27.10;75.90
5576;DHT22;2810;50.134;8.626;2022-08-06T07:50:22;27.30;75.80
5576;DHT22;2810;50.134;8.626;2022-08-06T07:52:47;27.50;75.30
5576;DHT22;2810;50.134;8.626;2022-08-06T07:55:13;27.80;73.40
5576;DHT22;2810;50.134;8.626;2022-08-06T07:57:40;28.10;72.30
5576;DHT22;2810;50.134;8.626;2022-08-06T08:00:06;28.60;72.10
5576;DHT22;2810;50.134;8.626;2022-08-06T08:02:32;28.60;71.10
5576;DHT22;2810;50.134;8.626;2022-08-06T08:04:58;28.70;68.10
5576;DHT22;2810;50.134;8.626;2022-08-06T08:07:42;28.60;68.70
5576;DHT22;2810;50.134;8.626;2022-08-06T08:10:08;28.70;67.30
5576;DHT22;2810;50.134;8.626;2022-08-06T08:12:34;28.40;67.50
5576;DHT22;2810;50.134;8.626;2022-08-06T08:15:11;28.30;66.60
5576;DHT22;2810;50.134;8.626;2022-08-06T08:17:36;28.40;68.30
5576;DHT22;2810;50.134;8.626;2022-08-06T08:20:05;28.80;66.40
5576;DHT22;2810;50.134;8.626;2022-08-06T08:22:31;28.70;64.10
5576;DHT22;2810;50.134;8.626;2022-08-06T08:24:56;28.60;64.20
5576;DHT22;2810;50.134;8.626;2022-08-06T08:27:22;28.50;64.70
5576;DHT22;2810;50.134;8.626;2022-08-06T08:29:47;28.80;63.70
5576;DHT22;2810;50.134;8.626;2022-08-06T08:32:13;28.90;62.30
5576;DHT22;2810;50.134;8.626;2022-08-06T08:34:38;28.90;60.90
5576;DHT22;2810;50.134;8.626;2022-08-06T08:37:04;28.40;61.70
5576;DHT22;2810;50.134;8.626;2022-08-06T08:39:29;28.90;61.80
5576;DHT22;2810;50.134;8.626;2022-08-06T08:42:02;29.30;58.80
5576;DHT22;2810;50.134;8.626;2022-08-06T08:44:27;29.00;59.30
5576;DHT22;2810;50.134;8.626;2022-08-06T08:46:57;29.10;59.10
5576;DHT22;2810;50.134;8.626;2022-08-06T08:49:27;29.00;58.20
5576;DHT22;2810;50.134;8.626;2022-08-06T08:51:53;28.80;58.40
5576;DHT22;2810;50.134;8.626;2022-08-06T08:54:21;29.10;59.00
5576;DHT22;2810;50.134;8.626;2022-08-06T08:56:47;29.30;57.70
5576;DHT22;2810;50.134;8.626;2022-08-06T08:59:13;29.30;57.10
5576;DHT22;2810;50.134;8.626;2022-08-06T09:01:39;29.00;58.40
5576;DHT22;2810;50.134;8.626;2022-08-06T09:04:05;29.10;58.80
5576;DHT22;2810;50.134;8.626;2022-08-06T09:06:30;29.30;57.60
5576;DHT22;2810;50.134;8.626;2022-08-06T09:08:58;29.10;57.80
5576;DHT22;2810;50.134;8.626;2022-08-06T09:11:29;29.50;56.00
5576;DHT22;2810;50.134;8.626;2022-08-06T09:13:54;29.50;56.50
5576;DHT22;2810;50.134;8.626;2022-08-06T09:16:20;29.60;56.60
5576;DHT22;2810;50.134;8.626;2022-08-06T09:18:45;29.20;55.60
5576;DHT22;2810;50.134;8.626;2022-08-06T09:21:10;29.10;56.20
5576;DHT22;2810;50.134;8.626;2022-08-06T09:23:37;29.20;54.00
5576;DHT22;2810;50.134;8.626;2022-08-06T09:26:03;29.50;55.30
5576;DHT22;2810;50.134;8.626;2022-08-06T09:28:30;29.50;55.20
5576;DHT22;2810;50.134;8.626;2022-08-06T09:30:57;29.60;54.50
5576;DHT22;2810;50.134;8.626;2022-08-06T09:33:23;28.80;54.20
5576;DHT22;2810;50.134;8.626;2022-08-06T09:35:56;27.70;56.60
5576;DHT22;2810;50.134;8.626;2022-08-06T09:38:22;28.00;57.40
5576;DHT22;2810;50.134;8.626;2022-08-06T09:43:28;28.90;54.60
5576;DHT22;2810;50.134;8.626;2022-08-06T09:45:54;28.90;54.50
5576;DHT22;2810;50.134;8.626;2022-08-06T09:48:19;29.10;55.10
5576;DHT22;2810;50.134;8.626;2022-08-06T09:50:45;29.40;54.90
5576;DHT22;2810;50.134;8.626;2022-08-06T09:53:11;29.80;53.90
5576;DHT22;2810;50.134;8.626;2022-08-06T09:55:37;29.60;53.10
5576;DHT22;2810;50.134;8.626;2022-08-06T09:58:03;29.70;53.80
5576;DHT22;2810;50.134;8.626;2022-08-06T10:00:30;29.90;53.30
5576;DHT22;2810;50.134;8.626;2022-08-06T10:02:56;29.60;53.30
5576;DHT22;2810;50.134;8.626;2022-08-06T10:05:22;29.30;53.50
5576;DHT22;2810;50.134;8.626;2022-08-06T10:07:48;29.10;53.80
5576;DHT22;2810;50.134;8.626;2022-08-06T10:10:46;29.10;53.70
5576;DHT22;2810;50.134;8.626;2022-08-06T10:13:16;29.50;54.20
5576;DHT22;2810;50.134;8.626;2022-08-06T10:15:45;30.00;52.90
5576;DHT22;2810;50.134;8.626;2022-08-06T10:18:13;30.10;53.00
5576;DHT22;2810;50.134;8.626;2022-08-06T10:21:00;29.10;52.10
5576;DHT22;2810;50.134;8.626;2022-08-06T10:23:25;29.10;52.80
5576;DHT22;2810;50.134;8.626;2022-08-06T10:25:51;29.70;51.30
5576;DHT22;2810;50.134;8.626;2022-08-06T10:28:17;29.60;51.40
5576;DHT22;2810;50.134;8.626;2022-08-06T10:30:43;28.70;52.10
5576;DHT22;2810;50.134;8.626;2022-08-06T10:33:11;28.50;53.50
5576;DHT22;2810;50.134;8.626;2022-08-06T10:35:37;28.90;53.80
5576;DHT22;2810;50.134;8.626;2022-08-06T10:38:05;29.30;52.20
5576;DHT22;2810;50.134;8.626;2022-08-06T10:40:32;29.50;51.60
5576;DHT22;2810;50.134;8.626;2022-08-06T10:42:59;29.70;51.50
5576;DHT22;2810;50.134;8.626;2022-08-06T10:45:26;30.00;51.50
5576;DHT22;2810;50.134;8.626;2022-08-06T10:47:52;29.40;50.20
5576;DHT22;2810;50.134;8.626;2022-08-06T10:50:18;29.00;50.70
5576;DHT22;2810;50.134;8.626;2022-08-06T10:52:43;28.80;50.70
5576;DHT22;2810;50.134;8.626;2022-08-06T10:55:09;29.00;51.10
5576;DHT22;2810;50.134;8.626;2022-08-06T10:57:36;29.00;50.80
5576;DHT22;2810;50.134;8.626;2022-08-06T11:00:04;28.40;51.10
5576;DHT22;2810;50.134;8.626;2022-08-06T11:05:15;28.60;51.70
5576;DHT22;2810;50.134;8.626;2022-08-06T11:07:48;28.80;50.40
5576;DHT22;2810;50.134;8.626;2022-08-06T11:15:16;28.40;50.70
5576;DHT22;2810;50.134;8.626;2022-08-06T11:17:43;28.50;51.40
5576;DHT22;2810;50.134;8.626;2022-08-06T11:20:33;28.70;51.60
5576;DHT22;2810;50.134;8.626;2022-08-06T11:22:54;28.80;50.50
5576;DHT22;2810;50.134;8.626;2022-08-06T11:25:35;28.70;51.10
5576;DHT22;2810;50.134;8.626;2022-08-06T11:28:01;29.10;51.30
5576;DHT22;2810;50.134;8.626;2022-08-06T11:30:42;29.10;48.40
5576;DHT22;2810;50.134;8.626;2022-08-06T11:33:08;29.40;48.10
5576;DHT22;2810;50.134;8.626;2022-08-06T11:38:04;29.10;47.70
5576;DHT22;2810;50.134;8.626;2022-08-06T11:51:41;28.20;49.40
5576;DHT22;2810;50.134;8.626;2022-08-06T11:54:16;28.40;50.40
5576;DHT22;2810;50.134;8.626;2022-08-06T11:59:38;27.70;48.60
5576;DHT22;2810;50.134;8.626;2022-08-06T12:02:10;27.70;50.30
5576;DHT22;2810;50.134;8.626;2022-08-06T12:07:15;27.30;47.80
5576;DHT22;2810;50.134;8.626;2022-08-06T12:09:41;27.10;47.90
5576;DHT22;2810;50.134;8.626;2022-08-06T12:14:58;27.60;48.10
5576;DHT22;2810;50.134;8.626;2022-08-06T12:17:24;27.60;47.10
5576;DHT22;2810;50.134;8.626;2022-08-06T12:19:51;27.30;47.80
5576;DHT22;2810;50.134;8.626;2022-08-06T12:22:17;27.40;49.10
5576;DHT22;2810;50.134;8.626;2022-08-06T12:24:43;27.60;48.90
5576;DHT22;2810;50.134;8.626;2022-08-06T12:27:10;27.10;47.80
5576;DHT22;2810;50.134;8.626;2022-08-06T12:29:36;26.90;48.30
5576;DHT22;2810;50.134;8.626;2022-08-06T12:32:18;26.90;48.60
5576;DHT22;2810;50.134;8.626;2022-08-06T12:34:43;26.80;47.70
5576;DHT22;2810;50.134;8.626;2022-08-06T12:37:09;26.70;49.30
5576;DHT22;2810;50.134;8.626;2022-08-06T12:39:38;26.60;49.50
5576;DHT22;2810;50.134;8.626;2022-08-06T12:42:23;26.80;49.90
5576;DHT22;2810;50.134;8.626;2022-08-06T12:44:48;26.90;48.10
5576;DHT22;2810;50.134;8.626;2022-08-06T12:47:14;26.70;48.50
5576;DHT22;2810;50.134;8.626;2022-08-06T12:49:39;26.60;48.50
5576;DHT22;2810;50.134;8.626;2022-08-06T12:52:15;26.60;48.80
5576;DHT22;2810;50.134;8.626;2022-08-06T12:54:45;26.50;48.00
5576;DHT22;2810;50.134;8.626;2022-08-06T13:00:06;26.40;49.10
5576;DHT22;2810;50.134;8.626;2022-08-06T13:02:33;26.60;49.40
5576;DHT22;2810;50.134;8.626;2022-08-06T13:04:58;26.60;49.50
5576;DHT22;2810;50.134;8.626;2022-08-06T13:07:24;26.50;48.20
5576;DHT22;2810;50.134;8.626;2022-08-06T13:09:49;26.50;48.50
5576;DHT22;2810;50.134;8.626;2022-08-06T13:12:15;26.50;48.60
5576;DHT22;2810;50.134;8.626;2022-08-06T13:14:52;26.60;48.50
5576;DHT22;2810;50.134;8.626;2022-08-06T13:17:24;26.20;47.60
5576;DHT22;2810;50.134;8.626;2022-08-06T13:19:51;26.10;48.50
5576;DHT22;2810;50.134;8.626;2022-08-06T13:22:17;26.10;48.20
5576;DHT22;2810;50.134;8.626;2022-08-06T13:24:42;26.60;47.60
5576;DHT22;2810;50.134;8.626;2022-08-06T13:27:08;26.30;47.50
5576;DHT22;2810;50.134;8.626;2022-08-06T13:29:33;26.40;48.00
5576;DHT22;2810;50.134;8.626;2022-08-06T13:32:04;26.20;48.70
5576;DHT22;2810;50.134;8.626;2022-08-06T13:34:39;26.20;48.60
5576;DHT22;2810;50.134;8.626;2022-08-06T13:37:09;26.20;48.90
5576;DHT22;2810;50.134;8.626;2022-08-06T13:39:34;26.30;49.00
5576;DHT22;2810;50.134;8.626;2022-08-06T13:44:27;26.30;49.00
5576;DHT22;2810;50.134;8.626;2022-08-06T13:46:53;26.40;49.90
5576;DHT22;2810;50.134;8.626;2022-08-06T13:49:18;26.40;47.50
5576;DHT22;2810;50.134;8.626;2022-08-06T13:51:44;26.30;48.10
5576;DHT22;2810;50.134;8.626;2022-08-06T13:54:09;26.30;47.70
5576;DHT22;2810;50.134;8.626;2022-08-06T13:56:34;26.30;48.10
5576;DHT22;2810;50.134;8.626;2022-08-06T13:59:00;26.40;47.70
5576;DHT22;2810;50.134;8.626;2022-08-06T14:01:25;26.50;47.70
5576;DHT22;2810;50.134;8.626;2022-08-06T14:03:51;26.60;47.50
5576;DHT22;2810;50.134;8.626;2022-08-06T14:06:16;26.40;46.70
5576;DHT22;2810;50.134;8.626;2022-08-06T14:08:41;26.30;47.80
5576;DHT22;2810;50.134;8.626;2022-08-06T14:11:07;26.30;48.70
5576;DHT22;2810;50.134;8.626;2022-08-06T14:13:32;26.30;46.70
5576;DHT22;2810;50.134;8.626;2022-08-06T14:15:58;26.30;47.20
5576;DHT22;2810;50.134;8.626;2022-08-06T14:18:25;26.40;48.20
5576;DHT22;2810;50.134;8.626;2022-08-06T14:20:51;26.50;46.90
5576;DHT22;2810;50.134;8.626;2022-08-06T14:23:16;26.90;48.10
5576;DHT22;2810;50.134;8.626;2022-08-06T14:25:42;26.50;48.90
5576;DHT22;2810;50.134;8.626;2022-08-06T14:28:07;26.50;49.40
5576;DHT22;2810;50.134;8.626;2022-08-06T14:30:33;26.30;48.50
5576;DHT22;2810;50.134;8.626;2022-08-06T14:32:59;26.30;48.60
5576;DHT22;2810;50.134;8.626;2022-08-06T14:35:26;26.50;49.00
5576;DHT22;2810;50.134;8.626;2022-08-06T14:37:51;26.80;47.70
5576;DHT22;2810;50.134;8.626;2022-08-06T14:40:19;26.40;48.40
5576;DHT22;2810;50.134;8.626;2022-08-06T14:43:03;26.20;48.80
5576;DHT22;2810;50.134;8.626;2022-08-06T14:45:48;26.30;49.20
5576;DHT22;2810;50.134;8.626;2022-08-06T14:48:13;26.00;50.10
5576;DHT22;2810;50.134;8.626;2022-08-06T14:50:39;25.80;49.70
5576;DHT22;2810;50.134;8.626;2022-08-06T14:53:05;25.90;49.40
5576;DHT22;2810;50.134;8.626;2022-08-06T14:55:30;25.70;48.90
5576;DHT22;2810;50.134;8.626;2022-08-06T14:57:56;25.50;49.30
5576;DHT22;2810;50.134;8.626;2022-08-06T15:00:21;25.40;49.20
5576;DHT22;2810;50.134;8.626;2022-08-06T15:02:47;25.30;48.40
5576;DHT22;2810;50.134;8.626;2022-08-06T15:05:12;25.30;49.00
5576;DHT22;2810;50.134;8.626;2022-08-06T15:07:38;25.10;49.60
5576;DHT22;2810;50.134;8.626;2022-08-06T15:10:03;25.20;49.90
5576;DHT22;2810;50.134;8.626;2022-08-06T15:12:29;25.20;49.60
5576;DHT22;2810;50.134;8.626;2022-08-06T15:14:54;25.20;50.20
5576;DHT22;2810;50.134;8.626;2022-08-06T15:17:20;25.20;50.60
5576;DHT22;2810;50.134;8.626;2022-08-06T15:19:48;25.40;50.40
5576;DHT22;2810;50.134;8.626;2022-08-06T15:22:14;25.10;50.70
5576;DHT22;2810;50.134;8.626;2022-08-06T15:24:39;25.00;50.00
5576;DHT22;2810;50.134;8.626;2022-08-06T15:27:05;25.00;49.70
5576;DHT22;2810;50.134;8.626;2022-08-06T15:29:32;24.90;49.60
5576;DHT22;2810;50.134;8.626;2022-08-06T15:31:57;25.00;50.90
5576;DHT22;2810;50.134;8.626;2022-08-06T15:34:23;24.90;51.70
5576;DHT22;2810;50.134;8.626;2022-08-06T15:36:48;24.90;51.50
5576;DHT22;2810;50.134;8.626;2022-08-06T15:39:14;25.00;52.00
5576;DHT22;2810;50.134;8.626;2022-08-06T15:41:39;24.90;52.10
5576;DHT22;2810;50.134;8.626;2022-08-06T15:44:07;24.90;50.50
5576;DHT22;2810;50.134;8.626;2022-08-06T15:46:33;24.80;50.80
5576;DHT22;2810;50.134;8.626;2022-08-06T15:48:59;24.70;51.00
5576;DHT22;2810;50.134;8.626;2022-08-06T15:51:25;24.90;51.90
5576;DHT22;2810;50.134;8.626;2022-08-06T15:53:51;24.70;51.00
5576;DHT22;2810;50.134;8.626;2022-08-06T15:56:17;24.60;50.70
5576;DHT22;2810;50.134;8.626;2022-08-06T15:58:42;24.50;51.00
5576;DHT22;2810;50.134;8.626;2022-08-06T16:01:08;24.60;51.80
5576;DHT22;2810;50.134;8.626;2022-08-06T16:03:34;24.60;52.30
5576;DHT22;2810;50.134;8.626;2022-08-06T16:05:59;24.60;51.70
5576;DHT22;2810;50.134;8.626;2022-08-06T16:08:25;24.60;51.80
5576;DHT22;2810;50.134;8.626;2022-08-06T16:10:51;24.50;51.70
5576;DHT22;2810;50.134;8.626;2022-08-06T16:13:16;24.60;52.10
5576;DHT22;2810;50.134;8.626;2022-08-06T16:15:45;24.60;51.40
5576;DHT22;2810;50.134;8.626;2022-08-06T16:18:11;24.50;51.50
5576;DHT22;2810;50.134;8.626;2022-08-06T16:20:37;24.40;51.50
5576;DHT22;2810;50.134;8.626;2022-08-06T16:23:04;24.40;52.00
5576;DHT22;2810;50.134;8.626;2022-08-06T16:25:30;24.80;52.10
5576;DHT22;2810;50.134;8.626;2022-08-06T16:27:55;24.40;52.00
5576;DHT22;2810;50.134;8.626;2022-08-06T16:30:20;24.10;51.70
5576;DHT22;2810;50.134;8.626;2022-08-06T16:32:46;24.40;52.50
5576;DHT22;2810;50.134;8.626;2022-08-06T16:35:12;24.30;52.10
5576;DHT22;2810;50.134;8.626;2022-08-06T16:37:37;24.30;51.70
5576;DHT22;2810;50.134;8.626;2022-08-06T16:40:03;24.20;52.10
5576;DHT22;2810;50.134;8.626;2022-08-06T16:42:31;24.10;52.00
5576;DHT22;2810;50.134;8.626;2022-08-06T16:44:56;24.10;52.00
5576;DHT22;2810;50.134;8.626;2022-08-06T16:47:22;24.10;52.10
5576;DHT22;2810;50.134;8.626;2022-08-06T16:49:47;24.00;52.20
5576;DHT22;2810;50.134;8.626;2022-08-06T16:52:13;24.00;52.30
5576;DHT22;2810;50.134;8.626;2022-08-06T16:54:38;24.20;52.90
5576;DHT22;2810;50.134;8.626;2022-08-06T16:57:04;23.80;52.90
5576;DHT22;2810;50.134;8.626;2022-08-06T16:59:29;23.80;52.80
5576;DHT22;2810;50.134;8.626;2022-08-06T17:01:54;23.80;52.70